sensor_id;sensor_type;location;lat;lon;timestamp;P1;durP1;ratioP1;P2;durP2;ratioP2
61741;SDS011;47650;49.848;9.620;2023-06-22T00:00:51;12.65;;;11.45;;
61741;SDS011;47650;49.848;9.620;2023-06-22T00:03:17;12.55;;;11.35;;
61741;SDS011;47650;49.848;9.620;2023-06-22T00:05:44;13.48;;;12.02;;
61741;SDS011;47650;49.848;9.620;2023-06-22T00:08:10;14.23;;;11.35;;
61741;SDS011;47650;49.848;9.620;2023-06-22T00:10:36;16.55;;;11.63;;
61741;SDS011;47650;49.848;9.620;2023-06-22T00:13:03;14.88;;;11.75;;
61741;SDS011;47650;49.848;9.620;2023-06-22T00:15:28;11.15;;;9.40;;
61741;SDS011;47650;49.848;9.620;2023-06-22T00:17:54;13.82;;;12.32;;
61741;SDS011;47650;49.848;9.620;2023-06-22T00:20:20;14.82;;;13.43;;
61741;SDS011;47650;49.848;9.620;2023-06-22T00:22:45;13.30;;;12.00;;
61741;SDS011;47650;49.848;9.620;2023-06-22T00:25:11;12.55;;;11.25;;
61741;SDS011;47650;49.848;9.620;2023-06-22T00:27:37;15.25;;;13.55;;
61741;SDS011;47650;49.848;9.620;2023-06-22T00:30:04;15.38;;;12.02;;
61741;SDS011;47650;49.848;9.620;2023-06-22T00:32:30;15.40;;;14.00;;
61741;SDS011;47650;49.848;9.620;2023-06-22T00:34:55;16.77;;;15.10;;
61741;SDS011;47650;49.848;9.620;2023-06-22T00:37:21;16.73;;;12.90;;
61741;SDS011;47650;49.848;9.620;2023-06-22T00:39:50;15.18;;;13.68;;
61741;SDS011;47650;49.848;9.620;2023-06-22T00:42:17;19.80;;;16.35;;
61741;SDS011;47650;49.848;9.620;2023-06-22T00:44:43;19.85;;;16.65;;
61741;SDS011;47650;49.848;9.620;2023-06-22T00:47:11;18.23;;;15.82;;
61741;SDS011;47650;49.848;9.620;2023-06-22T00:49:41;20.45;;;16.75;;
61741;SDS011;47650;49.848;9.620;2023-06-22T00:52:07;20.38;;;16.88;;
61741;SDS011;47650;49.848;9.620;2023-06-22T00:54:34;24.75;;;17.48;;
61741;SDS011;47650;49.848;9.620;2023-06-22T00:57:01;29.25;;;17.42;;
61741;SDS011;47650;49.848;9.620;2023-06-22T00:59:28;21.25;;;16.50;;
61741;SDS011;47650;49.848;9.620;2023-06-22T01:01:54;17.77;;;15.45;;
61741;SDS011;47650;49.848;9.620;2023-06-22T01:04:21;17.90;;;15.20;;
61741;SDS011;47650;49.848;9.620;2023-06-22T01:06:54;16.30;;;14.68;;
61741;SDS011;47650;49.848;9.620;2023-06-22T01:09:31;27.92;;;17.67;;
61741;SDS011;47650;49.848;9.620;2023-06-22T01:12:01;18.45;;;15.52;;
61741;SDS011;47650;49.848;9.620;2023-06-22T01:14:35;24.83;;;16.90;;
61741;SDS011;47650;49.848;9.620;2023-06-22T01:17:12;18.50;;;15.25;;
61741;SDS011;47650;49.848;9.620;2023-06-22T01:19:50;20.25;;;16.70;;
61741;SDS011;47650;49.848;9.620;2023-06-22T01:22:22;20.00;;;16.58;;
61741;SDS011;47650;49.848;9.620;2023-06-22T01:25:07;15.77;;;13.75;;
61741;SDS011;47650;49.848;9.620;2023-06-22T01:27:52;18.58;;;14.65;;
61741;SDS011;47650;49.848;9.620;2023-06-22T01:30:25;19.33;;;14.82;;
61741;SDS011;47650;49.848;9.620;2023-06-22T01:32:53;17.75;;;15.70;;
61741;SDS011;47650;49.848;9.620;2023-06-22T01:35:21;18.10;;;14.80;;
61741;SDS011;47650;49.848;9.620;2023-06-22T01:37:47;16.52;;;14.48;;
61741;SDS011;47650;49.848;9.620;2023-06-22T01:40:14;15.80;;;14.15;;
61741;SDS011;47650;49.848;9.620;2023-06-22T01:42:40;15.80;;;12.95;;
61741;SDS011;47650;49.848;9.620;2023-06-22T01:45:08;12.98;;;10.98;;
61741;SDS011;47650;49.848;9.620;2023-06-22T01:47:37;15.55;;;11.98;;
61741;SDS011;47650;49.848;9.620;2023-06-22T01:50:04;12.75;;;11.45;;
61741;SDS011;47650;49.848;9.620;2023-06-22T01:52:30;107.82;;;35.42;;
61741;SDS011;47650;49.848;9.620;2023-06-22T01:54:55;36.08;;;32.30;;
61741;SDS011;47650;49.848;9.620;2023-06-22T01:57:22;68.22;;;31.77;;
61741;SDS011;47650;49.848;9.620;2023-06-22T01:59:51;62.75;;;31.63;;
61741;SDS011;47650;49.848;9.620;2023-06-22T02:02:24;41.03;;;33.83;;
61741;SDS011;47650;49.848;9.620;2023-06-22T02:04:56;34.00;;;26.08;;
61741;SDS011;47650;49.848;9.620;2023-06-22T02:07:26;30.73;;;27.48;;
61741;SDS011;47650;49.848;9.620;2023-06-22T02:09:57;30.40;;;27.15;;
61741;SDS011;47650;49.848;9.620;2023-06-22T02:12:24;31.83;;;28.58;;
61741;SDS011;47650;49.848;9.620;2023-06-22T02:14:55;37.35;;;32.95;;
61741;SDS011;47650;49.848;9.620;2023-06-22T02:17:21;38.42;;;34.30;;
61741;SDS011;47650;49.848;9.620;2023-06-22T02:19:52;41.25;;;36.70;;
61741;SDS011;47650;49.848;9.620;2023-06-22T02:22:17;35.50;;;31.80;;
61741;SDS011;47650;49.848;9.620;2023-06-22T02:24:44;29.67;;;26.58;;
61741;SDS011;47650;49.848;9.620;2023-06-22T02:27:10;28.85;;;25.23;;
61741;SDS011;47650;49.848;9.620;2023-06-22T02:29:37;28.58;;;24.25;;
61741;SDS011;47650;49.848;9.620;2023-06-22T02:32:02;30.35;;;27.20;;
61741;SDS011;47650;49.848;9.620;2023-06-22T02:34:31;25.77;;;23.23;;
61741;SDS011;47650;49.848;9.620;2023-06-22T02:36:57;27.00;;;24.25;;
61741;SDS011;47650;49.848;9.620;2023-06-22T02:39:26;32.30;;;28.98;;
61741;SDS011;47650;49.848;9.620;2023-06-22T02:41:52;32.20;;;28.90;;
61741;SDS011;47650;49.848;9.620;2023-06-22T02:44:20;45.60;;;39.88;;
61741;SDS011;47650;49.848;9.620;2023-06-22T02:46:47;57.42;;;41.65;;
61741;SDS011;47650;49.848;9.620;2023-06-22T02:49:12;40.55;;;35.47;;
61741;SDS011;47650;49.848;9.620;2023-06-22T02:51:42;59.08;;;46.80;;
61741;SDS011;47650;49.848;9.620;2023-06-22T02:54:10;65.82;;;50.58;;
61741;SDS011;47650;49.848;9.620;2023-06-22T02:56:36;44.92;;;36.15;;
61741;SDS011;47650;49.848;9.620;2023-06-22T02:59:01;56.20;;;45.60;;
61741;SDS011;47650;49.848;9.620;2023-06-22T03:01:27;52.47;;;43.83;;
61741;SDS011;47650;49.848;9.620;2023-06-22T03:03:55;72.63;;;53.20;;
61741;SDS011;47650;49.848;9.620;2023-06-22T03:06:21;65.63;;;49.47;;
61741;SDS011;47650;49.848;9.620;2023-06-22T03:08:48;87.75;;;58.75;;
61741;SDS011;47650;49.848;9.620;2023-06-22T03:11:16;67.63;;;50.60;;
61741;SDS011;47650;49.848;9.620;2023-06-22T03:13:42;42.13;;;37.55;;
61741;SDS011;47650;49.848;9.620;2023-06-22T03:16:07;61.63;;;45.17;;
61741;SDS011;47650;49.848;9.620;2023-06-22T03:18:33;93.28;;;58.42;;
61741;SDS011;47650;49.848;9.620;2023-06-22T03:20:58;74.78;;;52.97;;
61741;SDS011;47650;49.848;9.620;2023-06-22T03:23:24;129.25;;;76.03;;
61741;SDS011;47650;49.848;9.620;2023-06-22T03:25:51;109.82;;;67.57;;
61741;SDS011;47650;49.848;9.620;2023-06-22T03:28:16;95.45;;;62.28;;
61741;SDS011;47650;49.848;9.620;2023-06-22T03:30:43;80.65;;;55.15;;
61741;SDS011;47650;49.848;9.620;2023-06-22T03:33:08;123.65;;;71.38;;
61741;SDS011;47650;49.848;9.620;2023-06-22T03:35:34;93.10;;;63.20;;
61741;SDS011;47650;49.848;9.620;2023-06-22T03:37:59;96.38;;;61.83;;
61741;SDS011;47650;49.848;9.620;2023-06-22T03:40:24;116.47;;;66.97;;
61741;SDS011;47650;49.848;9.620;2023-06-22T03:42:52;107.93;;;71.55;;
61741;SDS011;47650;49.848;9.620;2023-06-22T03:45:17;76.75;;;56.10;;
61741;SDS011;47650;49.848;9.620;2023-06-22T03:47:43;71.32;;;53.13;;
61741;SDS011;47650;49.848;9.620;2023-06-22T03:50:08;75.47;;;55.30;;
61741;SDS011;47650;49.848;9.620;2023-06-22T03:52:39;59.75;;;48.65;;
61741;SDS011;47650;49.848;9.620;2023-06-22T03:55:05;74.25;;;55.70;;
61741;SDS011;47650;49.848;9.620;2023-06-22T03:57:31;122.28;;;71.00;;
61741;SDS011;47650;49.848;9.620;2023-06-22T03:59:56;97.07;;;63.95;;
61741;SDS011;47650;49.848;9.620;2023-06-22T04:02:26;90.82;;;62.33;;
61741;SDS011;47650;49.848;9.620;2023-06-22T04:04:51;86.28;;;59.30;;
61741;SDS011;47650;49.848;9.620;2023-06-22T04:07:17;121.38;;;70.40;;
61741;SDS011;47650;49.848;9.620;2023-06-22T04:09:43;88.65;;;61.33;;
61741;SDS011;47650;49.848;9.620;2023-06-22T04:12:09;89.85;;;60.80;;
61741;SDS011;47650;49.848;9.620;2023-06-22T04:14:37;84.07;;;59.20;;
61741;SDS011;47650;49.848;9.620;2023-06-22T04:17:03;101.13;;;67.45;;
61741;SDS011;47650;49.848;9.620;2023-06-22T04:19:31;82.97;;;59.90;;
61741;SDS011;47650;49.848;9.620;2023-06-22T04:21:58;117.82;;;71.32;;
61741;SDS011;47650;49.848;9.620;2023-06-22T04:24:24;68.65;;;53.75;;
61741;SDS011;47650;49.848;9.620;2023-06-22T04:26:49;104.88;;;65.65;;
61741;SDS011;47650;49.848;9.620;2023-06-22T04:29:21;115.25;;;72.72;;
61741;SDS011;47650;49.848;9.620;2023-06-22T04:31:53;70.07;;;51.55;;
61741;SDS011;47650;49.848;9.620;2023-06-22T04:34:20;80.88;;;58.45;;
61741;SDS011;47650;49.848;9.620;2023-06-22T04:36:46;96.20;;;66.22;;
61741;SDS011;47650;49.848;9.620;2023-06-22T04:39:14;93.65;;;63.60;;
61741;SDS011;47650;49.848;9.620;2023-06-22T04:41:40;90.65;;;62.17;;
61741;SDS011;47650;49.848;9.620;2023-06-22T04:44:09;64.97;;;52.10;;
61741;SDS011;47650;49.848;9.620;2023-06-22T04:46:36;96.45;;;63.28;;
61741;SDS011;47650;49.848;9.620;2023-06-22T04:49:20;86.85;;;60.47;;
61741;SDS011;47650;49.848;9.620;2023-06-22T04:51:47;103.25;;;74.32;;
61741;SDS011;47650;49.848;9.620;2023-06-22T04:54:13;98.05;;;63.30;;
61741;SDS011;47650;49.848;9.620;2023-06-22T04:56:41;68.85;;;55.17;;
61741;SDS011;47650;49.848;9.620;2023-06-22T04:59:07;77.57;;;60.28;;
61741;SDS011;47650;49.848;9.620;2023-06-22T05:01:37;87.75;;;60.90;;
61741;SDS011;47650;49.848;9.620;2023-06-22T05:04:04;76.43;;;54.33;;
61741;SDS011;47650;49.848;9.620;2023-06-22T05:06:31;60.90;;;50.60;;
61741;SDS011;47650;49.848;9.620;2023-06-22T05:08:57;44.90;;;38.92;;
61741;SDS011;47650;49.848;9.620;2023-06-22T05:11:25;69.88;;;56.67;;
61741;SDS011;47650;49.848;9.620;2023-06-22T05:13:51;50.20;;;42.85;;
61741;SDS011;47650;49.848;9.620;2023-06-22T05:16:17;55.83;;;47.42;;
61741;SDS011;47650;49.848;9.620;2023-06-22T05:18:43;55.88;;;48.55;;
61741;SDS011;47650;49.848;9.620;2023-06-22T05:21:08;44.20;;;38.00;;
61741;SDS011;47650;49.848;9.620;2023-06-22T05:23:34;50.35;;;44.08;;
61741;SDS011;47650;49.848;9.620;2023-06-22T05:25:59;44.05;;;39.25;;
61741;SDS011;47650;49.848;9.620;2023-06-22T05:28:24;46.05;;;40.25;;
61741;SDS011;47650;49.848;9.620;2023-06-22T05:30:50;48.25;;;43.15;;
61741;SDS011;47650;49.848;9.620;2023-06-22T05:33:15;39.85;;;36.03;;
61741;SDS011;47650;49.848;9.620;2023-06-22T05:35:41;49.53;;;44.10;;
61741;SDS011;47650;49.848;9.620;2023-06-22T05:38:06;35.63;;;31.92;;
61741;SDS011;47650;49.848;9.620;2023-06-22T05:40:31;34.05;;;30.30;;
61741;SDS011;47650;49.848;9.620;2023-06-22T05:42:57;30.10;;;27.10;;
61741;SDS011;47650;49.848;9.620;2023-06-22T05:45:25;38.13;;;34.20;;
61741;SDS011;47650;49.848;9.620;2023-06-22T05:47:51;33.10;;;29.80;;
61741;SDS011;47650;49.848;9.620;2023-06-22T05:50:17;23.33;;;20.95;;
61741;SDS011;47650;49.848;9.620;2023-06-22T05:52:45;25.65;;;23.08;;
61741;SDS011;47650;49.848;9.620;2023-06-22T05:55:11;32.85;;;29.65;;
61741;SDS011;47650;49.848;9.620;2023-06-22T05:57:39;25.17;;;22.85;;
61741;SDS011;47650;49.848;9.620;2023-06-22T06:00:05;19.77;;;17.60;;
61741;SDS011;47650;49.848;9.620;2023-06-22T06:02:35;24.08;;;21.52;;
61741;SDS011;47650;49.848;9.620;2023-06-22T06:05:00;29.52;;;26.65;;
61741;SDS011;47650;49.848;9.620;2023-06-22T06:07:29;25.55;;;23.17;;
61741;SDS011;47650;49.848;9.620;2023-06-22T06:09:55;19.48;;;17.63;;
61741;SDS011;47650;49.848;9.620;2023-06-22T06:12:24;20.05;;;18.15;;
61741;SDS011;47650;49.848;9.620;2023-06-22T06:14:54;18.27;;;16.65;;
61741;SDS011;47650;49.848;9.620;2023-06-22T06:17:21;16.73;;;15.00;;
61741;SDS011;47650;49.848;9.620;2023-06-22T06:19:46;18.02;;;16.17;;
61741;SDS011;47650;49.848;9.620;2023-06-22T06:22:12;17.42;;;15.75;;
61741;SDS011;47650;49.848;9.620;2023-06-22T06:24:37;15.23;;;13.82;;
61741;SDS011;47650;49.848;9.620;2023-06-22T06:27:03;17.23;;;15.52;;
61741;SDS011;47650;49.848;9.620;2023-06-22T06:29:29;15.07;;;13.55;;
61741;SDS011;47650;49.848;9.620;2023-06-22T06:31:55;15.70;;;13.68;;
61741;SDS011;47650;49.848;9.620;2023-06-22T06:34:21;14.20;;;13.00;;
61741;SDS011;47650;49.848;9.620;2023-06-22T06:36:49;14.25;;;12.68;;
61741;SDS011;47650;49.848;9.620;2023-06-22T06:39:15;13.02;;;11.82;;
61741;SDS011;47650;49.848;9.620;2023-06-22T06:41:43;13.68;;;12.27;;
61741;SDS011;47650;49.848;9.620;2023-06-22T06:44:08;12.85;;;11.63;;
61741;SDS011;47650;49.848;9.620;2023-06-22T06:46:33;12.95;;;11.75;;
61741;SDS011;47650;49.848;9.620;2023-06-22T06:48:58;11.43;;;10.45;;
61741;SDS011;47650;49.848;9.620;2023-06-22T06:51:24;11.57;;;10.50;;
61741;SDS011;47650;49.848;9.620;2023-06-22T06:53:50;12.57;;;11.43;;
61741;SDS011;47650;49.848;9.620;2023-06-22T06:56:16;12.32;;;10.65;;
61741;SDS011;47650;49.848;9.620;2023-06-22T06:58:43;10.95;;;9.85;;
61741;SDS011;47650;49.848;9.620;2023-06-22T07:01:10;12.32;;;10.88;;
61741;SDS011;47650;49.848;9.620;2023-06-22T07:03:36;12.20;;;11.00;;
61741;SDS011;47650;49.848;9.620;2023-06-22T07:06:04;12.00;;;10.80;;
61741;SDS011;47650;49.848;9.620;2023-06-22T07:08:31;11.82;;;10.50;;
61741;SDS011;47650;49.848;9.620;2023-06-22T07:11:00;11.70;;;10.70;;
61741;SDS011;47650;49.848;9.620;2023-06-22T07:13:30;12.10;;;10.33;;
61741;SDS011;47650;49.848;9.620;2023-06-22T07:15:55;12.75;;;10.88;;
61741;SDS011;47650;49.848;9.620;2023-06-22T07:18:20;10.98;;;10.07;;
61741;SDS011;47650;49.848;9.620;2023-06-22T07:20:46;9.95;;;9.00;;
61741;SDS011;47650;49.848;9.620;2023-06-22T07:23:13;11.35;;;10.38;;
61741;SDS011;47650;49.848;9.620;2023-06-22T07:25:38;10.70;;;9.70;;
61741;SDS011;47650;49.848;9.620;2023-06-22T07:28:04;10.93;;;9.82;;
61741;SDS011;47650;49.848;9.620;2023-06-22T07:30:31;13.00;;;9.98;;
61741;SDS011;47650;49.848;9.620;2023-06-22T07:32:57;12.65;;;9.70;;
61741;SDS011;47650;49.848;9.620;2023-06-22T07:35:23;11.05;;;10.10;;
61741;SDS011;47650;49.848;9.620;2023-06-22T07:37:50;11.13;;;10.10;;
61741;SDS011;47650;49.848;9.620;2023-06-22T07:40:16;11.25;;;10.15;;
61741;SDS011;47650;49.848;9.620;2023-06-22T07:42:41;10.85;;;9.75;;
61741;SDS011;47650;49.848;9.620;2023-06-22T07:45:07;11.43;;;10.07;;
61741;SDS011;47650;49.848;9.620;2023-06-22T07:47:34;10.15;;;9.05;;
61741;SDS011;47650;49.848;9.620;2023-06-22T07:50:00;9.95;;;9.05;;
61741;SDS011;47650;49.848;9.620;2023-06-22T07:52:27;10.10;;;9.20;;
61741;SDS011;47650;49.848;9.620;2023-06-22T07:54:55;10.27;;;9.27;;
61741;SDS011;47650;49.848;9.620;2023-06-22T07:57:21;11.48;;;9.23;;
61741;SDS011;47650;49.848;9.620;2023-06-22T07:59:47;9.63;;;8.93;;
61741;SDS011;47650;49.848;9.620;2023-06-22T08:02:15;9.77;;;8.88;;
61741;SDS011;47650;49.848;9.620;2023-06-22T08:04:52;12.73;;;9.90;;
61741;SDS011;47650;49.848;9.620;2023-06-22T08:07:21;11.55;;;9.27;;
61741;SDS011;47650;49.848;9.620;2023-06-22T08:09:57;13.20;;;9.30;;
61741;SDS011;47650;49.848;9.620;2023-06-22T08:12:24;9.40;;;8.40;;
61741;SDS011;47650;49.848;9.620;2023-06-22T08:14:49;10.18;;;9.13;;
61741;SDS011;47650;49.848;9.620;2023-06-22T08:17:15;10.27;;;9.43;;
61741;SDS011;47650;49.848;9.620;2023-06-22T08:19:41;10.25;;;9.30;;
61741;SDS011;47650;49.848;9.620;2023-06-22T08:22:07;10.23;;;9.27;;
61741;SDS011;47650;49.848;9.620;2023-06-22T08:24:35;10.65;;;9.70;;
61741;SDS011;47650;49.848;9.620;2023-06-22T08:27:02;13.20;;;9.73;;
61741;SDS011;47650;49.848;9.620;2023-06-22T08:29:33;10.65;;;9.68;;
61741;SDS011;47650;49.848;9.620;2023-06-22T08:31:59;10.20;;;9.30;;
61741;SDS011;47650;49.848;9.620;2023-06-22T08:34:24;9.87;;;8.93;;
61741;SDS011;47650;49.848;9.620;2023-06-22T08:36:50;10.23;;;9.23;;
61741;SDS011;47650;49.848;9.620;2023-06-22T08:39:18;11.15;;;9.95;;
61741;SDS011;47650;49.848;9.620;2023-06-22T08:41:45;10.57;;;9.48;;
61741;SDS011;47650;49.848;9.620;2023-06-22T08:44:11;9.88;;;8.82;;
61741;SDS011;47650;49.848;9.620;2023-06-22T08:46:37;9.07;;;8.10;;
61741;SDS011;47650;49.848;9.620;2023-06-22T08:49:04;9.65;;;8.75;;
61741;SDS011;47650;49.848;9.620;2023-06-22T08:51:29;10.63;;;9.68;;
61741;SDS011;47650;49.848;9.620;2023-06-22T08:53:55;9.60;;;8.73;;
61741;SDS011;47650;49.848;9.620;2023-06-22T08:56:22;9.50;;;8.60;;
61741;SDS011;47650;49.848;9.620;2023-06-22T08:58:47;9.70;;;8.80;;
61741;SDS011;47650;49.848;9.620;2023-06-22T09:01:12;8.95;;;8.23;;
61741;SDS011;47650;49.848;9.620;2023-06-22T09:03:40;8.90;;;8.10;;
61741;SDS011;47650;49.848;9.620;2023-06-22T09:06:06;10.60;;;9.57;;
61741;SDS011;47650;49.848;9.620;2023-06-22T09:08:35;11.60;;;10.30;;
61741;SDS011;47650;49.848;9.620;2023-06-22T09:11:01;10.43;;;9.43;;
61741;SDS011;47650;49.848;9.620;2023-06-22T09:13:29;10.65;;;9.65;;
61741;SDS011;47650;49.848;9.620;2023-06-22T09:15:57;10.20;;;9.20;;
61741;SDS011;47650;49.848;9.620;2023-06-22T09:18:29;9.85;;;8.85;;
61741;SDS011;47650;49.848;9.620;2023-06-22T09:20:54;9.73;;;8.73;;
61741;SDS011;47650;49.848;9.620;2023-06-22T09:23:23;11.32;;;8.77;;
61741;SDS011;47650;49.848;9.620;2023-06-22T09:25:50;10.75;;;9.82;;
61741;SDS011;47650;49.848;9.620;2023-06-22T09:28:16;11.48;;;10.38;;
61741;SDS011;47650;49.848;9.620;2023-06-22T09:30:42;10.13;;;8.80;;
61741;SDS011;47650;49.848;9.620;2023-06-22T09:33:09;11.45;;;10.45;;
61741;SDS011;47650;49.848;9.620;2023-06-22T09:35:35;10.55;;;9.70;;
61741;SDS011;47650;49.848;9.620;2023-06-22T09:38:00;10.80;;;9.93;;
61741;SDS011;47650;49.848;9.620;2023-06-22T09:40:27;10.90;;;10.00;;
61741;SDS011;47650;49.848;9.620;2023-06-22T09:42:54;12.63;;;11.40;;
61741;SDS011;47650;49.848;9.620;2023-06-22T09:45:19;11.02;;;10.15;;
61741;SDS011;47650;49.848;9.620;2023-06-22T09:47:44;13.07;;;11.97;;
61741;SDS011;47650;49.848;9.620;2023-06-22T09:50:10;11.57;;;10.57;;
61741;SDS011;47650;49.848;9.620;2023-06-22T09:52:35;11.77;;;10.80;;
61741;SDS011;47650;49.848;9.620;2023-06-22T09:55:00;9.83;;;8.90;;
61741;SDS011;47650;49.848;9.620;2023-06-22T09:57:32;10.97;;;9.90;;
61741;SDS011;47650;49.848;9.620;2023-06-22T09:59:57;10.48;;;9.68;;
61741;SDS011;47650;49.848;9.620;2023-06-22T10:02:23;10.13;;;9.23;;
61741;SDS011;47650;49.848;9.620;2023-06-22T10:04:48;10.87;;;9.93;;
61741;SDS011;47650;49.848;9.620;2023-06-22T10:07:13;9.98;;;8.98;;
61741;SDS011;47650;49.848;9.620;2023-06-22T10:09:40;9.67;;;8.90;;
61741;SDS011;47650;49.848;9.620;2023-06-22T10:12:06;9.30;;;8.50;;
61741;SDS011;47650;49.848;9.620;2023-06-22T10:14:32;10.57;;;9.73;;
61741;SDS011;47650;49.848;9.620;2023-06-22T10:16:57;8.68;;;7.82;;
61741;SDS011;47650;49.848;9.620;2023-06-22T10:19:23;9.13;;;8.33;;
61741;SDS011;47650;49.848;9.620;2023-06-22T10:21:49;9.33;;;8.50;;
61741;SDS011;47650;49.848;9.620;2023-06-22T10:24:14;9.63;;;8.90;;
61741;SDS011;47650;49.848;9.620;2023-06-22T10:26:40;9.75;;;8.55;;
61741;SDS011;47650;49.848;9.620;2023-06-22T10:29:05;9.13;;;8.32;;
61741;SDS011;47650;49.848;9.620;2023-06-22T10:31:33;10.15;;;9.02;;
61741;SDS011;47650;49.848;9.620;2023-06-22T10:34:08;10.65;;;9.27;;
61741;SDS011;47650;49.848;9.620;2023-06-22T10:36:33;9.85;;;8.95;;
61741;SDS011;47650;49.848;9.620;2023-06-22T10:38:59;8.97;;;6.87;;
61741;SDS011;47650;49.848;9.620;2023-06-22T10:41:26;7.25;;;6.63;;
61741;SDS011;47650;49.848;9.620;2023-06-22T10:43:55;7.47;;;6.78;;
61741;SDS011;47650;49.848;9.620;2023-06-22T10:46:20;8.30;;;6.68;;
61741;SDS011;47650;49.848;9.620;2023-06-22T10:48:46;7.93;;;7.23;;
61741;SDS011;47650;49.848;9.620;2023-06-22T10:51:11;9.60;;;8.90;;
61741;SDS011;47650;49.848;9.620;2023-06-22T10:53:36;8.43;;;7.43;;
61741;SDS011;47650;49.848;9.620;2023-06-22T10:58:33;7.97;;;7.28;;
61741;SDS011;47650;49.848;9.620;2023-06-22T11:00:58;7.90;;;7.10;;
61741;SDS011;47650;49.848;9.620;2023-06-22T11:03:25;7.80;;;7.30;;
61741;SDS011;47650;49.848;9.620;2023-06-22T11:05:52;7.90;;;6.95;;
61741;SDS011;47650;49.848;9.620;2023-06-22T11:08:17;8.30;;;6.97;;
61741;SDS011;47650;49.848;9.620;2023-06-22T11:10:43;7.38;;;6.68;;
61741;SDS011;47650;49.848;9.620;2023-06-22T11:13:08;8.23;;;7.10;;
61741;SDS011;47650;49.848;9.620;2023-06-22T11:15:35;10.60;;;7.15;;
61741;SDS011;47650;49.848;9.620;2023-06-22T11:18:01;7.82;;;7.10;;
61741;SDS011;47650;49.848;9.620;2023-06-22T11:20:26;7.55;;;5.95;;
61741;SDS011;47650;49.848;9.620;2023-06-22T11:22:53;6.87;;;6.27;;
61741;SDS011;47650;49.848;9.620;2023-06-22T11:25:19;8.05;;;7.13;;
61741;SDS011;47650;49.848;9.620;2023-06-22T11:27:44;9.67;;;7.30;;
61741;SDS011;47650;49.848;9.620;2023-06-22T11:30:09;7.73;;;7.00;;
61741;SDS011;47650;49.848;9.620;2023-06-22T11:32:35;7.22;;;6.53;;
61741;SDS011;47650;49.848;9.620;2023-06-22T11:35:01;8.07;;;7.35;;
61741;SDS011;47650;49.848;9.620;2023-06-22T11:37:28;7.22;;;6.53;;
61741;SDS011;47650;49.848;9.620;2023-06-22T11:39:55;7.72;;;7.03;;
61741;SDS011;47650;49.848;9.620;2023-06-22T11:42:20;7.47;;;6.77;;
61741;SDS011;47650;49.848;9.620;2023-06-22T11:44:47;7.90;;;7.20;;
61741;SDS011;47650;49.848;9.620;2023-06-22T11:47:13;7.90;;;7.20;;
61741;SDS011;47650;49.848;9.620;2023-06-22T11:49:38;8.27;;;6.65;;
61741;SDS011;47650;49.848;9.620;2023-06-22T11:52:05;9.13;;;6.35;;
61741;SDS011;47650;49.848;9.620;2023-06-22T11:54:31;8.93;;;6.18;;
61741;SDS011;47650;49.848;9.620;2023-06-22T11:56:57;8.47;;;6.10;;
61741;SDS011;47650;49.848;9.620;2023-06-22T11:59:23;6.65;;;5.90;;
61741;SDS011;47650;49.848;9.620;2023-06-22T12:01:48;8.00;;;6.30;;
61741;SDS011;47650;49.848;9.620;2023-06-22T12:04:16;7.43;;;6.03;;
61741;SDS011;47650;49.848;9.620;2023-06-22T12:06:41;8.23;;;6.00;;
61741;SDS011;47650;49.848;9.620;2023-06-22T12:09:07;6.63;;;5.85;;
61741;SDS011;47650;49.848;9.620;2023-06-22T12:11:34;9.13;;;5.93;;
61741;SDS011;47650;49.848;9.620;2023-06-22T12:14:00;10.33;;;6.00;;
61741;SDS011;47650;49.848;9.620;2023-06-22T12:16:29;7.47;;;5.38;;
61741;SDS011;47650;49.848;9.620;2023-06-22T12:18:56;9.10;;;5.95;;
61741;SDS011;47650;49.848;9.620;2023-06-22T12:21:22;6.95;;;5.30;;
61741;SDS011;47650;49.848;9.620;2023-06-22T12:23:48;9.82;;;5.60;;
61741;SDS011;47650;49.848;9.620;2023-06-22T12:26:15;6.45;;;5.78;;
61741;SDS011;47650;49.848;9.620;2023-06-22T12:28:40;11.27;;;6.10;;
61741;SDS011;47650;49.848;9.620;2023-06-22T12:31:07;8.97;;;5.97;;
61741;SDS011;47650;49.848;9.620;2023-06-22T12:33:32;7.03;;;4.90;;
61741;SDS011;47650;49.848;9.620;2023-06-22T12:35:59;9.52;;;6.47;;
61741;SDS011;47650;49.848;9.620;2023-06-22T12:38:27;7.22;;;5.32;;
61741;SDS011;47650;49.848;9.620;2023-06-22T12:40:53;11.48;;;6.40;;
61741;SDS011;47650;49.848;9.620;2023-06-22T12:43:19;6.27;;;5.53;;
61741;SDS011;47650;49.848;9.620;2023-06-22T12:45:44;9.05;;;5.75;;
61741;SDS011;47650;49.848;9.620;2023-06-22T12:48:09;7.83;;;5.77;;
61741;SDS011;47650;49.848;9.620;2023-06-22T12:50:38;12.68;;;6.65;;
61741;SDS011;47650;49.848;9.620;2023-06-22T12:53:03;7.97;;;5.73;;
61741;SDS011;47650;49.848;9.620;2023-06-22T12:55:31;8.38;;;5.85;;
61741;SDS011;47650;49.848;9.620;2023-06-22T12:57:57;8.65;;;5.75;;
61741;SDS011;47650;49.848;9.620;2023-06-22T13:00:22;9.32;;;6.18;;
61741;SDS011;47650;49.848;9.620;2023-06-22T13:02:48;9.55;;;6.20;;
61741;SDS011;47650;49.848;9.620;2023-06-22T13:05:13;9.05;;;6.35;;
61741;SDS011;47650;49.848;9.620;2023-06-22T13:07:39;8.52;;;5.60;;
61741;SDS011;47650;49.848;9.620;2023-06-22T13:10:13;8.38;;;7.50;;
61741;SDS011;47650;49.848;9.620;2023-06-22T13:12:39;7.50;;;6.18;;
61741;SDS011;47650;49.848;9.620;2023-06-22T13:15:11;9.52;;;5.95;;
61741;SDS011;47650;49.848;9.620;2023-06-22T13:17:36;10.45;;;6.72;;
61741;SDS011;47650;49.848;9.620;2023-06-22T13:20:03;9.55;;;6.57;;
61741;SDS011;47650;49.848;9.620;2023-06-22T13:22:30;6.80;;;5.60;;
61741;SDS011;47650;49.848;9.620;2023-06-22T13:24:57;7.47;;;5.90;;
61741;SDS011;47650;49.848;9.620;2023-06-22T13:27:24;7.50;;;5.85;;
61741;SDS011;47650;49.848;9.620;2023-06-22T13:29:50;11.50;;;6.10;;
61741;SDS011;47650;49.848;9.620;2023-06-22T13:32:18;10.32;;;5.85;;
61741;SDS011;47650;49.848;9.620;2023-06-22T13:34:43;11.40;;;5.50;;
61741;SDS011;47650;49.848;9.620;2023-06-22T13:37:09;10.75;;;5.85;;
61741;SDS011;47650;49.848;9.620;2023-06-22T13:39:34;8.95;;;6.30;;
61741;SDS011;47650;49.848;9.620;2023-06-22T13:41:59;9.52;;;6.32;;
61741;SDS011;47650;49.848;9.620;2023-06-22T13:44:25;10.82;;;6.43;;
61741;SDS011;47650;49.848;9.620;2023-06-22T13:46:53;10.52;;;6.20;;
61741;SDS011;47650;49.848;9.620;2023-06-22T13:49:19;10.80;;;6.72;;
61741;SDS011;47650;49.848;9.620;2023-06-22T13:51:47;10.80;;;6.90;;
61741;SDS011;47650;49.848;9.620;2023-06-22T13:54:14;8.10;;;6.22;;
61741;SDS011;47650;49.848;9.620;2023-06-22T13:56:39;9.38;;;5.40;;
61741;SDS011;47650;49.848;9.620;2023-06-22T13:59:06;11.70;;;5.95;;
61741;SDS011;47650;49.848;9.620;2023-06-22T14:01:34;8.05;;;5.22;;
61741;SDS011;47650;49.848;9.620;2023-06-22T14:04:08;11.38;;;6.78;;
61741;SDS011;47650;49.848;9.620;2023-06-22T14:06:34;12.70;;;6.22;;
61741;SDS011;47650;49.848;9.620;2023-06-22T14:09:06;8.63;;;5.77;;
61741;SDS011;47650;49.848;9.620;2023-06-22T14:11:32;10.35;;;6.15;;
61741;SDS011;47650;49.848;9.620;2023-06-22T14:13:59;13.77;;;6.68;;
61741;SDS011;47650;49.848;9.620;2023-06-22T14:16:25;12.63;;;6.13;;
61741;SDS011;47650;49.848;9.620;2023-06-22T14:18:51;11.82;;;6.10;;
61741;SDS011;47650;49.848;9.620;2023-06-22T14:21:16;9.63;;;5.90;;
61741;SDS011;47650;49.848;9.620;2023-06-22T14:23:44;12.10;;;5.70;;
61741;SDS011;47650;49.848;9.620;2023-06-22T14:26:14;10.25;;;6.15;;
61741;SDS011;47650;49.848;9.620;2023-06-22T14:28:39;10.43;;;6.38;;
61741;SDS011;47650;49.848;9.620;2023-06-22T14:31:04;10.43;;;6.30;;